Financial Plaza, Florida
Current Conditions -  °F | °C
As of 12:53 PM on Thursday 23 Oct 2014 (Local Time) from KFLL Reporting Station
Broken Clouds Broken Clouds  
Wind Chill: 79°   Ceiling: 3500
Heat Index: 82°   Visibility: 10mi
Dew Point: 72°   Wind: 12mph
Humidity: 79%   Direction: 50°NE
Pressure: 29.92"   Gusts: NA
Location:  26.1179°N, 80.1441°W
Report Text: KFLL 231653Z 05010KT 10SM SCT016 BKN035 BKN055 26/22 A2992 RMK AO2 RAB00E32 SLP130 P0000 T02610222
Loading
Personal Weather Stations






























Interactive Weather Map
Tropical Storm Tracking
New forecast layout! Learn more

10-Day Weather Forecast

Advertisements
Track Severe Weather on mobile